sensor_id;sensor_type;location;lat;lon;timestamp;P1;durP1;ratioP1;P2;durP2;ratioP2
36709;SDS011;22694;51.040;3.684;2023-03-23T00:01:14;2.35;;;1.10;;
36709;SDS011;22694;51.040;3.684;2023-03-23T00:03:50;1.05;;;0.70;;
36709;SDS011;22694;51.040;3.684;2023-03-23T00:06:18;1.25;;;0.90;;
36709;SDS011;22694;51.040;3.684;2023-03-23T00:08:46;0.73;;;0.73;;
36709;SDS011;22694;51.040;3.684;2023-03-23T00:11:18;1.75;;;1.00;;
36709;SDS011;22694;51.040;3.684;2023-03-23T00:13:46;1.25;;;0.90;;
36709;SDS011;22694;51.040;3.684;2023-03-23T00:16:16;1.50;;;0.88;;
36709;SDS011;22694;51.040;3.684;2023-03-23T00:18:54;2.17;;;1.00;;
36709;SDS011;22694;51.040;3.684;2023-03-23T00:21:21;2.00;;;0.80;;
36709;SDS011;22694;51.040;3.684;2023-03-23T00:23:50;1.60;;;1.00;;
36709;SDS011;22694;51.040;3.684;2023-03-23T00:26:17;1.38;;;0.80;;
36709;SDS011;22694;51.040;3.684;2023-03-23T00:28:43;1.10;;;0.90;;
36709;SDS011;22694;51.040;3.684;2023-03-23T00:31:11;1.63;;;1.27;;
36709;SDS011;22694;51.040;3.684;2023-03-23T00:33:37;0.80;;;0.70;;
36709;SDS011;22694;51.040;3.684;2023-03-23T00:36:06;1.52;;;0.93;;
36709;SDS011;22694;51.040;3.684;2023-03-23T00:38:33;0.73;;;0.60;;
36709;SDS011;22694;51.040;3.684;2023-03-23T00:41:00;1.20;;;0.80;;
36709;SDS011;22694;51.040;3.684;2023-03-23T00:43:29;1.67;;;1.02;;
36709;SDS011;22694;51.040;3.684;2023-03-23T00:45:56;0.80;;;0.80;;
36709;SDS011;22694;51.040;3.684;2023-03-23T00:48:26;1.30;;;0.70;;
36709;SDS011;22694;51.040;3.684;2023-03-23T00:50:53;1.02;;;0.80;;
36709;SDS011;22694;51.040;3.684;2023-03-23T00:53:19;1.13;;;0.80;;
36709;SDS011;22694;51.040;3.684;2023-03-23T00:55:46;1.83;;;0.77;;
36709;SDS011;22694;51.040;3.684;2023-03-23T00:58:13;1.05;;;0.90;;
36709;SDS011;22694;51.040;3.684;2023-03-23T01:00:39;0.95;;;0.85;;
36709;SDS011;22694;51.040;3.684;2023-03-23T01:03:06;1.20;;;0.88;;
36709;SDS011;22694;51.040;3.684;2023-03-23T01:05:35;1.10;;;1.00;;
36709;SDS011;22694;51.040;3.684;2023-03-23T01:08:02;1.70;;;0.98;;
36709;SDS011;22694;51.040;3.684;2023-03-23T01:10:29;1.00;;;0.68;;
36709;SDS011;22694;51.040;3.684;2023-03-23T01:12:57;1.63;;;0.80;;
36709;SDS011;22694;51.040;3.684;2023-03-23T01:15:27;0.95;;;0.73;;
36709;SDS011;22694;51.040;3.684;2023-03-23T01:17:54;1.25;;;0.73;;
36709;SDS011;22694;51.040;3.684;2023-03-23T01:20:20;1.23;;;0.70;;
36709;SDS011;22694;51.040;3.684;2023-03-23T01:22:46;1.38;;;0.73;;
36709;SDS011;22694;51.040;3.684;2023-03-23T01:25:12;0.70;;;0.70;;
36709;SDS011;22694;51.040;3.684;2023-03-23T01:27:38;1.08;;;0.98;;
36709;SDS011;22694;51.040;3.684;2023-03-23T01:30:05;1.08;;;0.75;;
36709;SDS011;22694;51.040;3.684;2023-03-23T01:32:33;0.95;;;0.70;;
36709;SDS011;22694;51.040;3.684;2023-03-23T01:35:00;0.80;;;0.80;;
36709;SDS011;22694;51.040;3.684;2023-03-23T01:37:25;0.77;;;0.70;;
36709;SDS011;22694;51.040;3.684;2023-03-23T01:39:54;1.15;;;0.70;;
36709;SDS011;22694;51.040;3.684;2023-03-23T01:42:23;1.20;;;0.80;;
36709;SDS011;22694;51.040;3.684;2023-03-23T01:47:17;0.93;;;0.75;;
36709;SDS011;22694;51.040;3.684;2023-03-23T01:49:48;0.60;;;0.60;;
36709;SDS011;22694;51.040;3.684;2023-03-23T01:52:19;0.98;;;0.70;;
36709;SDS011;22694;51.040;3.684;2023-03-23T01:54:51;0.45;;;0.45;;
36709;SDS011;22694;51.040;3.684;2023-03-23T01:57:20;1.17;;;0.60;;
36709;SDS011;22694;51.040;3.684;2023-03-23T01:59:49;0.50;;;0.50;;
36709;SDS011;22694;51.040;3.684;2023-03-23T02:02:17;0.75;;;0.55;;
36709;SDS011;22694;51.040;3.684;2023-03-23T02:04:46;0.75;;;0.60;;
36709;SDS011;22694;51.040;3.684;2023-03-23T02:07:12;0.90;;;0.60;;
36709;SDS011;22694;51.040;3.684;2023-03-23T02:09:40;0.70;;;0.70;;
36709;SDS011;22694;51.040;3.684;2023-03-23T02:12:05;1.25;;;0.63;;
36709;SDS011;22694;51.040;3.684;2023-03-23T02:14:31;0.70;;;0.52;;
36709;SDS011;22694;51.040;3.684;2023-03-23T02:17:02;0.90;;;0.70;;
36709;SDS011;22694;51.040;3.684;2023-03-23T02:36:37;1.23;;;0.50;;
36709;SDS011;22694;51.040;3.684;2023-03-23T02:39:18;0.60;;;0.60;;
36709;SDS011;22694;51.040;3.684;2023-03-23T02:41:55;1.25;;;0.55;;
36709;SDS011;22694;51.040;3.684;2023-03-23T02:44:24;0.88;;;0.70;;
36709;SDS011;22694;51.040;3.684;2023-03-23T02:46:55;2.03;;;0.60;;
36709;SDS011;22694;51.040;3.684;2023-03-23T02:49:22;1.73;;;0.80;;
36709;SDS011;22694;51.040;3.684;2023-03-23T02:51:51;0.57;;;0.50;;
36709;SDS011;22694;51.040;3.684;2023-03-23T02:54:19;1.25;;;0.50;;
36709;SDS011;22694;51.040;3.684;2023-03-23T02:56:47;1.02;;;0.60;;
36709;SDS011;22694;51.040;3.684;2023-03-23T02:59:15;0.77;;;0.52;;
36709;SDS011;22694;51.040;3.684;2023-03-23T03:04:11;1.05;;;0.68;;
36709;SDS011;22694;51.040;3.684;2023-03-23T03:07:02;1.83;;;0.60;;
36709;SDS011;22694;51.040;3.684;2023-03-23T03:09:35;0.70;;;0.40;;
36709;SDS011;22694;51.040;3.684;2023-03-23T03:15:12;0.57;;;0.50;;
36709;SDS011;22694;51.040;3.684;2023-03-23T03:17:58;1.02;;;0.57;;
36709;SDS011;22694;51.040;3.684;2023-03-23T03:20:37;1.63;;;0.55;;
36709;SDS011;22694;51.040;3.684;2023-03-23T03:23:08;1.17;;;0.55;;
36709;SDS011;22694;51.040;3.684;2023-03-23T03:25:37;0.55;;;0.55;;
36709;SDS011;22694;51.040;3.684;2023-03-23T03:28:06;1.10;;;0.60;;
36709;SDS011;22694;51.040;3.684;2023-03-23T03:30:32;0.98;;;0.50;;
36709;SDS011;22694;51.040;3.684;2023-03-23T03:33:01;2.15;;;0.60;;
36709;SDS011;22694;51.040;3.684;2023-03-23T03:35:28;2.92;;;0.50;;
36709;SDS011;22694;51.040;3.684;2023-03-23T03:37:55;2.22;;;0.57;;
36709;SDS011;22694;51.040;3.684;2023-03-23T03:40:23;1.05;;;0.60;;
36709;SDS011;22694;51.040;3.684;2023-03-23T03:42:48;1.77;;;0.43;;
36709;SDS011;22694;51.040;3.684;2023-03-23T03:45:16;1.48;;;0.65;;
36709;SDS011;22694;51.040;3.684;2023-03-23T03:47:43;0.73;;;0.52;;
36709;SDS011;22694;51.040;3.684;2023-03-23T03:50:09;1.60;;;0.95;;
36709;SDS011;22694;51.040;3.684;2023-03-23T03:52:35;0.90;;;0.50;;
36709;SDS011;22694;51.040;3.684;2023-03-23T03:55:03;1.65;;;0.70;;
36709;SDS011;22694;51.040;3.684;2023-03-23T03:57:29;0.82;;;0.38;;
36709;SDS011;22694;51.040;3.684;2023-03-23T03:59:55;1.10;;;0.50;;
36709;SDS011;22694;51.040;3.684;2023-03-23T04:02:21;1.48;;;0.63;;
36709;SDS011;22694;51.040;3.684;2023-03-23T04:04:47;2.00;;;0.55;;
36709;SDS011;22694;51.040;3.684;2023-03-23T04:07:14;2.22;;;0.77;;
36709;SDS011;22694;51.040;3.684;2023-03-23T04:09:41;0.95;;;0.55;;
36709;SDS011;22694;51.040;3.684;2023-03-23T04:12:13;2.25;;;0.57;;
36709;SDS011;22694;51.040;3.684;2023-03-23T04:14:39;2.00;;;0.63;;
36709;SDS011;22694;51.040;3.684;2023-03-23T04:17:05;0.95;;;0.40;;
36709;SDS011;22694;51.040;3.684;2023-03-23T04:19:34;0.55;;;0.40;;
36709;SDS011;22694;51.040;3.684;2023-03-23T04:22:02;2.17;;;0.70;;
36709;SDS011;22694;51.040;3.684;2023-03-23T04:24:28;0.40;;;0.40;;
36709;SDS011;22694;51.040;3.684;2023-03-23T04:26:57;1.50;;;0.70;;
36709;SDS011;22694;51.040;3.684;2023-03-23T04:29:23;2.45;;;0.90;;
36709;SDS011;22694;51.040;3.684;2023-03-23T04:31:48;1.15;;;0.50;;
36709;SDS011;22694;51.040;3.684;2023-03-23T04:34:15;2.42;;;0.60;;
36709;SDS011;22694;51.040;3.684;2023-03-23T04:36:41;2.25;;;0.77;;
36709;SDS011;22694;51.040;3.684;2023-03-23T04:39:07;0.88;;;0.47;;
36709;SDS011;22694;51.040;3.684;2023-03-23T04:41:38;1.60;;;0.65;;
36709;SDS011;22694;51.040;3.684;2023-03-23T04:44:07;1.25;;;0.60;;
36709;SDS011;22694;51.040;3.684;2023-03-23T04:46:32;1.17;;;0.63;;
36709;SDS011;22694;51.040;3.684;2023-03-23T04:48:59;0.65;;;0.43;;
36709;SDS011;22694;51.040;3.684;2023-03-23T04:51:25;1.58;;;0.63;;
36709;SDS011;22694;51.040;3.684;2023-03-23T04:53:56;1.48;;;0.50;;
36709;SDS011;22694;51.040;3.684;2023-03-23T04:56:21;1.73;;;0.60;;
36709;SDS011;22694;51.040;3.684;2023-03-23T04:58:47;1.52;;;0.55;;
36709;SDS011;22694;51.040;3.684;2023-03-23T05:01:13;0.88;;;0.60;;
36709;SDS011;22694;51.040;3.684;2023-03-23T05:03:39;2.47;;;1.00;;
36709;SDS011;22694;51.040;3.684;2023-03-23T05:06:05;2.08;;;0.57;;
36709;SDS011;22694;51.040;3.684;2023-03-23T05:08:32;2.05;;;0.82;;
36709;SDS011;22694;51.040;3.684;2023-03-23T05:10:58;2.22;;;0.73;;
36709;SDS011;22694;51.040;3.684;2023-03-23T05:13:25;1.75;;;0.65;;
36709;SDS011;22694;51.040;3.684;2023-03-23T05:15:53;0.55;;;0.50;;
36709;SDS011;22694;51.040;3.684;2023-03-23T05:18:18;0.98;;;0.60;;
36709;SDS011;22694;51.040;3.684;2023-03-23T05:20:45;1.33;;;0.50;;
36709;SDS011;22694;51.040;3.684;2023-03-23T05:23:12;1.40;;;0.70;;
36709;SDS011;22694;51.040;3.684;2023-03-23T05:25:38;1.13;;;0.57;;
36709;SDS011;22694;51.040;3.684;2023-03-23T05:28:07;1.15;;;0.50;;
36709;SDS011;22694;51.040;3.684;2023-03-23T05:30:35;1.33;;;0.80;;
36709;SDS011;22694;51.040;3.684;2023-03-23T05:33:03;1.73;;;0.75;;
36709;SDS011;22694;51.040;3.684;2023-03-23T05:35:29;0.88;;;0.50;;
36709;SDS011;22694;51.040;3.684;2023-03-23T05:37:55;1.38;;;0.60;;
36709;SDS011;22694;51.040;3.684;2023-03-23T05:40:23;0.73;;;0.60;;
36709;SDS011;22694;51.040;3.684;2023-03-23T05:42:51;2.80;;;0.90;;
36709;SDS011;22694;51.040;3.684;2023-03-23T05:45:17;2.40;;;0.90;;
36709;SDS011;22694;51.040;3.684;2023-03-23T05:47:43;1.63;;;0.68;;
36709;SDS011;22694;51.040;3.684;2023-03-23T05:50:09;2.20;;;1.08;;
36709;SDS011;22694;51.040;3.684;2023-03-23T05:52:36;1.55;;;0.73;;
36709;SDS011;22694;51.040;3.684;2023-03-23T05:55:02;1.15;;;0.65;;
36709;SDS011;22694;51.040;3.684;2023-03-23T05:57:29;3.10;;;0.88;;
36709;SDS011;22694;51.040;3.684;2023-03-23T05:59:55;1.58;;;0.65;;
36709;SDS011;22694;51.040;3.684;2023-03-23T06:02:22;2.08;;;0.60;;
36709;SDS011;22694;51.040;3.684;2023-03-23T06:04:49;4.75;;;0.90;;
36709;SDS011;22694;51.040;3.684;2023-03-23T06:07:15;1.27;;;0.43;;
36709;SDS011;22694;51.040;3.684;2023-03-23T06:09:41;3.38;;;0.70;;
36709;SDS011;22694;51.040;3.684;2023-03-23T06:12:08;5.53;;;1.10;;
36709;SDS011;22694;51.040;3.684;2023-03-23T06:14:35;3.92;;;0.90;;
36709;SDS011;22694;51.040;3.684;2023-03-23T06:17:01;2.83;;;0.90;;
36709;SDS011;22694;51.040;3.684;2023-03-23T06:19:27;2.55;;;0.80;;
36709;SDS011;22694;51.040;3.684;2023-03-23T06:21:56;2.42;;;1.00;;
36709;SDS011;22694;51.040;3.684;2023-03-23T06:24:22;2.72;;;0.77;;
36709;SDS011;22694;51.040;3.684;2023-03-23T06:26:47;1.73;;;0.77;;
36709;SDS011;22694;51.040;3.684;2023-03-23T06:29:15;2.00;;;0.65;;
36709;SDS011;22694;51.040;3.684;2023-03-23T06:31:45;3.88;;;1.05;;
36709;SDS011;22694;51.040;3.684;2023-03-23T06:34:14;4.63;;;0.60;;
36709;SDS011;22694;51.040;3.684;2023-03-23T06:36:40;1.45;;;0.68;;
36709;SDS011;22694;51.040;3.684;2023-03-23T06:39:08;2.58;;;0.80;;
36709;SDS011;22694;51.040;3.684;2023-03-23T06:41:34;2.15;;;0.73;;
36709;SDS011;22694;51.040;3.684;2023-03-23T06:44:00;1.50;;;0.90;;
36709;SDS011;22694;51.040;3.684;2023-03-23T06:46:26;2.90;;;0.73;;
36709;SDS011;22694;51.040;3.684;2023-03-23T06:48:52;1.65;;;0.80;;
36709;SDS011;22694;51.040;3.684;2023-03-23T06:51:20;1.80;;;0.63;;
36709;SDS011;22694;51.040;3.684;2023-03-23T06:53:46;3.58;;;0.60;;
36709;SDS011;22694;51.040;3.684;2023-03-23T06:56:11;2.13;;;0.75;;
36709;SDS011;22694;51.040;3.684;2023-03-23T06:58:37;1.23;;;0.50;;
36709;SDS011;22694;51.040;3.684;2023-03-23T07:01:04;1.17;;;0.50;;
36709;SDS011;22694;51.040;3.684;2023-03-23T07:03:30;1.98;;;0.90;;
36709;SDS011;22694;51.040;3.684;2023-03-23T07:05:56;2.53;;;0.75;;
36709;SDS011;22694;51.040;3.684;2023-03-23T07:08:23;2.10;;;0.63;;
36709;SDS011;22694;51.040;3.684;2023-03-23T07:10:52;3.95;;;0.55;;
36709;SDS011;22694;51.040;3.684;2023-03-23T07:13:19;1.23;;;0.57;;
36709;SDS011;22694;51.040;3.684;2023-03-23T07:15:45;1.25;;;0.50;;
36709;SDS011;22694;51.040;3.684;2023-03-23T07:18:11;1.30;;;0.60;;
36709;SDS011;22694;51.040;3.684;2023-03-23T07:20:36;1.60;;;0.93;;
36709;SDS011;22694;51.040;3.684;2023-03-23T07:23:02;1.83;;;0.43;;
36709;SDS011;22694;51.040;3.684;2023-03-23T07:25:30;1.40;;;0.50;;
36709;SDS011;22694;51.040;3.684;2023-03-23T07:27:57;1.90;;;0.60;;
36709;SDS011;22694;51.040;3.684;2023-03-23T07:30:28;1.42;;;0.60;;
36709;SDS011;22694;51.040;3.684;2023-03-23T07:32:54;2.70;;;0.52;;
36709;SDS011;22694;51.040;3.684;2023-03-23T07:35:21;2.67;;;0.82;;
36709;SDS011;22694;51.040;3.684;2023-03-23T07:37:47;5.03;;;0.90;;
36709;SDS011;22694;51.040;3.684;2023-03-23T07:40:14;5.25;;;1.05;;
36709;SDS011;22694;51.040;3.684;2023-03-23T07:42:43;1.48;;;0.57;;
36709;SDS011;22694;51.040;3.684;2023-03-23T07:45:11;1.05;;;0.40;;
36709;SDS011;22694;51.040;3.684;2023-03-23T07:47:38;0.93;;;0.55;;
36709;SDS011;22694;51.040;3.684;2023-03-23T07:50:05;3.15;;;0.77;;
36709;SDS011;22694;51.040;3.684;2023-03-23T07:52:32;1.20;;;0.50;;
36709;SDS011;22694;51.040;3.684;2023-03-23T07:54:59;4.82;;;0.60;;
36709;SDS011;22694;51.040;3.684;2023-03-23T07:57:27;1.77;;;0.80;;
36709;SDS011;22694;51.040;3.684;2023-03-23T07:59:53;5.25;;;0.82;;
36709;SDS011;22694;51.040;3.684;2023-03-23T08:02:19;1.95;;;0.85;;
36709;SDS011;22694;51.040;3.684;2023-03-23T08:04:45;1.90;;;0.60;;
36709;SDS011;22694;51.040;3.684;2023-03-23T08:07:12;3.83;;;1.08;;
36709;SDS011;22694;51.040;3.684;2023-03-23T08:09:40;1.98;;;0.90;;
36709;SDS011;22694;51.040;3.684;2023-03-23T08:12:06;5.03;;;0.60;;
36709;SDS011;22694;51.040;3.684;2023-03-23T08:14:31;2.35;;;0.88;;
36709;SDS011;22694;51.040;3.684;2023-03-23T08:16:57;1.45;;;0.75;;
36709;SDS011;22694;51.040;3.684;2023-03-23T08:19:23;2.50;;;0.80;;
36709;SDS011;22694;51.040;3.684;2023-03-23T08:21:49;2.78;;;0.70;;
36709;SDS011;22694;51.040;3.684;2023-03-23T08:24:15;1.75;;;0.70;;
36709;SDS011;22694;51.040;3.684;2023-03-23T08:26:41;2.08;;;0.70;;
36709;SDS011;22694;51.040;3.684;2023-03-23T08:29:07;4.35;;;0.70;;
36709;SDS011;22694;51.040;3.684;2023-03-23T08:31:33;2.38;;;0.60;;
36709;SDS011;22694;51.040;3.684;2023-03-23T08:34:00;1.00;;;0.60;;
36709;SDS011;22694;51.040;3.684;2023-03-23T08:36:26;2.47;;;0.60;;
36709;SDS011;22694;51.040;3.684;2023-03-23T08:38:53;3.00;;;0.63;;
36709;SDS011;22694;51.040;3.684;2023-03-23T08:41:19;1.65;;;0.50;;
36709;SDS011;22694;51.040;3.684;2023-03-23T08:43:45;2.97;;;0.90;;
36709;SDS011;22694;51.040;3.684;2023-03-23T08:46:11;1.27;;;0.57;;
36709;SDS011;22694;51.040;3.684;2023-03-23T08:48:37;1.65;;;0.82;;
36709;SDS011;22694;51.040;3.684;2023-03-23T08:51:04;1.85;;;0.52;;
36709;SDS011;22694;51.040;3.684;2023-03-23T08:53:31;2.38;;;0.85;;
36709;SDS011;22694;51.040;3.684;2023-03-23T08:56:07;1.85;;;0.68;;
36709;SDS011;22694;51.040;3.684;2023-03-23T08:58:34;1.98;;;0.68;;
36709;SDS011;22694;51.040;3.684;2023-03-23T09:01:01;4.80;;;0.85;;
36709;SDS011;22694;51.040;3.684;2023-03-23T09:03:28;3.15;;;0.80;;
36709;SDS011;22694;51.040;3.684;2023-03-23T09:05:57;2.58;;;0.77;;
36709;SDS011;22694;51.040;3.684;2023-03-23T09:08:25;2.88;;;0.68;;
36709;SDS011;22694;51.040;3.684;2023-03-23T09:10:53;3.97;;;0.90;;
36709;SDS011;22694;51.040;3.684;2023-03-23T09:13:27;4.00;;;0.75;;
36709;SDS011;22694;51.040;3.684;2023-03-23T09:15:53;3.65;;;1.00;;
36709;SDS011;22694;51.040;3.684;2023-03-23T09:18:18;4.05;;;1.05;;
36709;SDS011;22694;51.040;3.684;2023-03-23T09:20:44;3.65;;;0.73;;
36709;SDS011;22694;51.040;3.684;2023-03-23T09:23:11;6.47;;;1.33;;
36709;SDS011;22694;51.040;3.684;2023-03-23T09:25:38;5.65;;;1.17;;
36709;SDS011;22694;51.040;3.684;2023-03-23T09:28:04;4.60;;;1.05;;
36709;SDS011;22694;51.040;3.684;2023-03-23T09:30:30;11.38;;;1.13;;
36709;SDS011;22694;51.040;3.684;2023-03-23T09:32:59;4.78;;;0.95;;
36709;SDS011;22694;51.040;3.684;2023-03-23T09:35:26;6.10;;;0.70;;
36709;SDS011;22694;51.040;3.684;2023-03-23T09:37:52;3.45;;;1.15;;
36709;SDS011;22694;51.040;3.684;2023-03-23T09:40:22;6.55;;;1.02;;
36709;SDS011;22694;51.040;3.684;2023-03-23T09:42:59;5.88;;;1.15;;
36709;SDS011;22694;51.040;3.684;2023-03-23T09:48:17;17.25;;;2.00;;
36709;SDS011;22694;51.040;3.684;2023-03-23T09:50:48;13.95;;;4.03;;
36709;SDS011;22694;51.040;3.684;2023-03-23T09:53:21;12.73;;;4.68;;
36709;SDS011;22694;51.040;3.684;2023-03-23T09:58:28;18.13;;;5.00;;
36709;SDS011;22694;51.040;3.684;2023-03-23T10:00:58;22.58;;;5.47;;
36709;SDS011;22694;51.040;3.684;2023-03-23T10:03:43;17.20;;;5.03;;
36709;SDS011;22694;51.040;3.684;2023-03-23T10:06:11;18.90;;;5.07;;
36709;SDS011;22694;51.040;3.684;2023-03-23T10:08:43;18.65;;;4.85;;
36709;SDS011;22694;51.040;3.684;2023-03-23T10:11:36;15.88;;;5.07;;
36709;SDS011;22694;51.040;3.684;2023-03-23T10:16:42;19.85;;;5.68;;
36709;SDS011;22694;51.040;3.684;2023-03-23T10:19:23;11.68;;;4.93;;
36709;SDS011;22694;51.040;3.684;2023-03-23T10:21:54;10.95;;;4.57;;
36709;SDS011;22694;51.040;3.684;2023-03-23T10:24:43;11.45;;;3.70;;
36709;SDS011;22694;51.040;3.684;2023-03-23T10:30:03;7.72;;;3.15;;
36709;SDS011;22694;51.040;3.684;2023-03-23T10:32:47;8.30;;;3.20;;
36709;SDS011;22694;51.040;3.684;2023-03-23T10:35:28;9.93;;;3.03;;
36709;SDS011;22694;51.040;3.684;2023-03-23T10:38:01;5.68;;;2.05;;
36709;SDS011;22694;51.040;3.684;2023-03-23T10:41:22;8.50;;;2.40;;
36709;SDS011;22694;51.040;3.684;2023-03-23T10:43:34;5.90;;;2.33;;
36709;SDS011;22694;51.040;3.684;2023-03-23T10:46:02;5.65;;;2.13;;
36709;SDS011;22694;51.040;3.684;2023-03-23T10:48:37;6.35;;;2.38;;
36709;SDS011;22694;51.040;3.684;2023-03-23T10:51:04;6.53;;;2.15;;
36709;SDS011;22694;51.040;3.684;2023-03-23T10:53:45;6.05;;;2.10;;
36709;SDS011;22694;51.040;3.684;2023-03-23T10:56:22;6.80;;;2.50;;
36709;SDS011;22694;51.040;3.684;2023-03-23T10:58:53;6.80;;;2.60;;
36709;SDS011;22694;51.040;3.684;2023-03-23T11:01:29;6.75;;;2.35;;
36709;SDS011;22694;51.040;3.684;2023-03-23T11:03:57;5.60;;;1.95;;
36709;SDS011;22694;51.040;3.684;2023-03-23T11:06:34;8.27;;;2.35;;
36709;SDS011;22694;51.040;3.684;2023-03-23T11:09:10;5.15;;;1.85;;
36709;SDS011;22694;51.040;3.684;2023-03-23T11:11:39;6.22;;;1.88;;
36709;SDS011;22694;51.040;3.684;2023-03-23T11:14:15;3.30;;;1.77;;
36709;SDS011;22694;51.040;3.684;2023-03-23T11:16:55;7.65;;;2.25;;
36709;SDS011;22694;51.040;3.684;2023-03-23T11:19:28;3.85;;;1.48;;
36709;SDS011;22694;51.040;3.684;2023-03-23T11:24:41;5.72;;;1.90;;
36709;SDS011;22694;51.040;3.684;2023-03-23T11:27:11;5.88;;;1.95;;
36709;SDS011;22694;51.040;3.684;2023-03-23T11:29:48;4.22;;;1.80;;
36709;SDS011;22694;51.040;3.684;2023-03-23T11:32:34;7.03;;;1.55;;
36709;SDS011;22694;51.040;3.684;2023-03-23T11:35:02;3.78;;;1.45;;
36709;SDS011;22694;51.040;3.684;2023-03-23T11:51:17;5.15;;;1.77;;
36709;SDS011;22694;51.040;3.684;2023-03-23T11:53:59;4.00;;;1.73;;
36709;SDS011;22694;51.040;3.684;2023-03-23T11:56:35;4.13;;;1.63;;
36709;SDS011;22694;51.040;3.684;2023-03-23T11:59:02;4.80;;;1.45;;
36709;SDS011;22694;51.040;3.684;2023-03-23T12:15:45;3.40;;;1.75;;
36709;SDS011;22694;51.040;3.684;2023-03-23T12:24:14;5.40;;;2.00;;
36709;SDS011;22694;51.040;3.684;2023-03-23T12:29:28;4.47;;;1.67;;
36709;SDS011;22694;51.040;3.684;2023-03-23T12:40:25;4.22;;;1.55;;
36709;SDS011;22694;51.040;3.684;2023-03-23T12:43:05;3.35;;;1.30;;
36709;SDS011;22694;51.040;3.684;2023-03-23T12:48:43;3.90;;;1.20;;
36709;SDS011;22694;51.040;3.684;2023-03-23T12:54:08;3.60;;;1.45;;
36709;SDS011;22694;51.040;3.684;2023-03-23T12:59:22;5.07;;;1.60;;
36709;SDS011;22694;51.040;3.684;2023-03-23T13:02:34;5.15;;;1.80;;
36709;SDS011;22694;51.040;3.684;2023-03-23T13:07:51;5.35;;;1.80;;
36709;SDS011;22694;51.040;3.684;2023-03-23T13:10:40;5.28;;;1.90;;
36709;SDS011;22694;51.040;3.684;2023-03-23T13:13:12;2.88;;;1.58;;
36709;SDS011;22694;51.040;3.684;2023-03-23T13:21:42;2.55;;;1.00;;
36709;SDS011;22694;51.040;3.684;2023-03-23T13:24:15;2.63;;;1.15;;
36709;SDS011;22694;51.040;3.684;2023-03-23T13:26:49;2.58;;;1.10;;
36709;SDS011;22694;51.040;3.684;2023-03-23T13:29:19;3.65;;;1.20;;
36709;SDS011;22694;51.040;3.684;2023-03-23T13:31:49;3.13;;;1.00;;
36709;SDS011;22694;51.040;3.684;2023-03-23T13:34:19;2.95;;;1.50;;
36709;SDS011;22694;51.040;3.684;2023-03-23T13:39:52;3.03;;;1.35;;
36709;SDS011;22694;51.040;3.684;2023-03-23T13:42:21;2.50;;;1.25;;
36709;SDS011;22694;51.040;3.684;2023-03-23T13:49:50;2.88;;;1.33;;
36709;SDS011;22694;51.040;3.684;2023-03-23T14:05:36;3.15;;;1.60;;
36709;SDS011;22694;51.040;3.684;2023-03-23T14:08:14;2.80;;;1.20;;
36709;SDS011;22694;51.040;3.684;2023-03-23T14:10:59;3.72;;;1.40;;
36709;SDS011;22694;51.040;3.684;2023-03-23T14:13:36;3.88;;;1.20;;
36709;SDS011;22694;51.040;3.684;2023-03-23T14:18:56;2.58;;;1.17;;
36709;SDS011;22694;51.040;3.684;2023-03-23T14:24:12;2.83;;;1.10;;
36709;SDS011;22694;51.040;3.684;2023-03-23T14:26:41;3.28;;;1.30;;
36709;SDS011;22694;51.040;3.684;2023-03-23T14:29:13;3.45;;;1.40;;
36709;SDS011;22694;51.040;3.684;2023-03-23T14:31:39;3.70;;;1.30;;
36709;SDS011;22694;51.040;3.684;2023-03-23T14:34:12;3.22;;;1.42;;
36709;SDS011;22694;51.040;3.684;2023-03-23T14:36:40;3.58;;;1.33;;
36709;SDS011;22694;51.040;3.684;2023-03-23T14:39:18;2.67;;;1.13;;
36709;SDS011;22694;51.040;3.684;2023-03-23T14:41:51;4.05;;;1.42;;
36709;SDS011;22694;51.040;3.684;2023-03-23T14:44:29;1.73;;;1.23;;
36709;SDS011;22694;51.040;3.684;2023-03-23T14:46:57;3.42;;;1.50;;
36709;SDS011;22694;51.040;3.684;2023-03-23T14:49:41;2.63;;;1.13;;
36709;SDS011;22694;51.040;3.684;2023-03-23T14:52:15;3.95;;;1.33;;
36709;SDS011;22694;51.040;3.684;2023-03-23T14:54:42;4.03;;;1.35;;
36709;SDS011;22694;51.040;3.684;2023-03-23T14:59:43;3.95;;;1.38;;
36709;SDS011;22694;51.040;3.684;2023-03-23T15:02:23;2.97;;;1.10;;
36709;SDS011;22694;51.040;3.684;2023-03-23T15:04:54;5.68;;;1.60;;
36709;SDS011;22694;51.040;3.684;2023-03-23T15:07:30;3.08;;;1.30;;
36709;SDS011;22694;51.040;3.684;2023-03-23T15:09:58;5.25;;;1.27;;
36709;SDS011;22694;51.040;3.684;2023-03-23T15:12:25;1.67;;;1.05;;
36709;SDS011;22694;51.040;3.684;2023-03-23T15:14:56;4.28;;;1.50;;
36709;SDS011;22694;51.040;3.684;2023-03-23T15:17:25;2.85;;;1.20;;
36709;SDS011;22694;51.040;3.684;2023-03-23T15:19:53;3.58;;;1.33;;
36709;SDS011;22694;51.040;3.684;2023-03-23T15:25:30;4.72;;;1.30;;
36709;SDS011;22694;51.040;3.684;2023-03-23T15:28:16;5.05;;;1.40;;
36709;SDS011;22694;51.040;3.684;2023-03-23T15:33:36;3.85;;;1.25;;
36709;SDS011;22694;51.040;3.684;2023-03-23T15:36:14;3.63;;;1.17;;
36709;SDS011;22694;51.040;3.684;2023-03-23T15:38:43;3.08;;;1.40;;
36709;SDS011;22694;51.040;3.684;2023-03-23T15:41:24;2.67;;;1.45;;
36709;SDS011;22694;51.040;3.684;2023-03-23T15:43:54;4.20;;;1.23;;
36709;SDS011;22694;51.040;3.684;2023-03-23T15:46:25;3.67;;;1.38;;
36709;SDS011;22694;51.040;3.684;2023-03-23T15:49:12;3.00;;;1.05;;
36709;SDS011;22694;51.040;3.684;2023-03-23T15:51:40;2.70;;;1.23;;
36709;SDS011;22694;51.040;3.684;2023-03-23T15:54:08;3.33;;;1.27;;
36709;SDS011;22694;51.040;3.684;2023-03-23T15:56:37;1.40;;;0.88;;
36709;SDS011;22694;51.040;3.684;2023-03-23T15:59:03;3.28;;;1.15;;
36709;SDS011;22694;51.040;3.684;2023-03-23T16:01:29;4.28;;;1.45;;
36709;SDS011;22694;51.040;3.684;2023-03-23T16:06:44;3.38;;;1.15;;
36709;SDS011;22694;51.040;3.684;2023-03-23T16:09:12;2.47;;;1.13;;
36709;SDS011;22694;51.040;3.684;2023-03-23T16:11:39;3.25;;;1.48;;
36709;SDS011;22694;51.040;3.684;2023-03-23T16:14:06;2.60;;;1.17;;
36709;SDS011;22694;51.040;3.684;2023-03-23T16:16:33;2.53;;;1.08;;
36709;SDS011;22694;51.040;3.684;2023-03-23T16:19:10;2.35;;;0.98;;
36709;SDS011;22694;51.040;3.684;2023-03-23T16:21:37;4.13;;;1.25;;
36709;SDS011;22694;51.040;3.684;2023-03-23T16:24:02;2.45;;;1.17;;
36709;SDS011;22694;51.040;3.684;2023-03-23T16:26:28;3.03;;;1.02;;
36709;SDS011;22694;51.040;3.684;2023-03-23T16:28:54;3.58;;;1.13;;
36709;SDS011;22694;51.040;3.684;2023-03-23T16:31:20;2.00;;;1.08;;
36709;SDS011;22694;51.040;3.684;2023-03-23T16:33:46;3.65;;;1.33;;
36709;SDS011;22694;51.040;3.684;2023-03-23T16:36:12;2.78;;;1.02;;
36709;SDS011;22694;51.040;3.684;2023-03-23T16:38:38;4.85;;;1.58;;
36709;SDS011;22694;51.040;3.684;2023-03-23T16:41:04;4.03;;;1.20;;
36709;SDS011;22694;51.040;3.684;2023-03-23T16:43:30;3.60;;;1.60;;
36709;SDS011;22694;51.040;3.684;2023-03-23T16:45:56;4.05;;;1.25;;
36709;SDS011;22694;51.040;3.684;2023-03-23T16:48:22;4.50;;;1.10;;
36709;SDS011;22694;51.040;3.684;2023-03-23T16:50:48;3.80;;;1.50;;
36709;SDS011;22694;51.040;3.684;2023-03-23T16:53:16;2.60;;;1.25;;
36709;SDS011;22694;51.040;3.684;2023-03-23T16:55:41;2.75;;;1.27;;
36709;SDS011;22694;51.040;3.684;2023-03-23T16:58:11;4.40;;;1.55;;
36709;SDS011;22694;51.040;3.684;2023-03-23T17:00:37;2.20;;;1.40;;
36709;SDS011;22694;51.040;3.684;2023-03-23T17:03:04;3.38;;;1.23;;
36709;SDS011;22694;51.040;3.684;2023-03-23T17:05:30;3.25;;;1.10;;
36709;SDS011;22694;51.040;3.684;2023-03-23T17:07:57;4.07;;;1.00;;
36709;SDS011;22694;51.040;3.684;2023-03-23T17:10:23;3.20;;;1.17;;
36709;SDS011;22694;51.040;3.684;2023-03-23T17:12:51;2.80;;;1.48;;
36709;SDS011;22694;51.040;3.684;2023-03-23T17:15:18;3.83;;;1.10;;
36709;SDS011;22694;51.040;3.684;2023-03-23T17:17:44;4.97;;;1.30;;
36709;SDS011;22694;51.040;3.684;2023-03-23T17:20:10;2.20;;;1.10;;